createdAt,value
2019-03-26T00:01:43.291Z,4.80
2019-03-26T00:04:13.273Z,4.80
2019-03-26T00:06:43.214Z,4.80
2019-03-26T00:09:13.132Z,4.80
2019-03-26T00:11:43.275Z,4.70
2019-03-26T00:14:13.330Z,4.80
2019-03-26T00:16:43.329Z,4.80
2019-03-26T00:19:13.316Z,4.70
2019-03-26T00:21:43.360Z,4.70
2019-03-26T00:24:13.258Z,4.70
2019-03-26T00:26:43.210Z,4.70
2019-03-26T00:29:13.254Z,4.60
2019-03-26T00:31:43.416Z,4.60
2019-03-26T00:34:19.164Z,4.60
2019-03-26T00:36:46.342Z,4.60
2019-03-26T00:39:16.473Z,4.60
2019-03-26T00:41:46.392Z,4.70
2019-03-26T00:44:16.413Z,4.60
2019-03-26T00:46:46.297Z,4.60
2019-03-26T00:49:16.231Z,4.50
2019-03-26T00:51:46.103Z,4.60
2019-03-26T00:54:16.366Z,4.60
2019-03-26T00:56:46.343Z,4.60
2019-03-26T00:59:16.427Z,4.50
2019-03-26T01:01:46.363Z,4.50
2019-03-26T01:04:16.456Z,4.50
2019-03-26T01:06:46.435Z,4.50
2019-03-26T01:09:16.859Z,4.60
2019-03-26T01:11:46.971Z,4.60
2019-03-26T01:14:17.021Z,4.60
2019-03-26T01:16:47.121Z,4.60
2019-03-26T01:19:17.050Z,4.70
2019-03-26T01:21:47.001Z,4.70
2019-03-26T01:24:17.005Z,4.70
2019-03-26T01:26:46.963Z,4.70
2019-03-26T01:29:16.872Z,4.70
2019-03-26T01:31:46.819Z,4.70
2019-03-26T01:34:16.782Z,4.70
2019-03-26T01:36:46.763Z,4.70
2019-03-26T01:39:16.766Z,4.70
2019-03-26T01:41:46.798Z,4.70
2019-03-26T01:44:16.814Z,4.70
2019-03-26T01:46:46.843Z,4.70
2019-03-26T01:49:16.838Z,4.70
2019-03-26T01:51:46.783Z,4.70
2019-03-26T01:54:16.772Z,4.70
2019-03-26T01:56:46.689Z,4.70
2019-03-26T01:59:16.667Z,4.70
2019-03-26T02:01:46.680Z,4.70
2019-03-26T02:04:16.679Z,4.70
2019-03-26T02:06:46.721Z,4.70
2019-03-26T02:09:16.730Z,4.70
2019-03-26T02:11:46.712Z,4.60
2019-03-26T02:14:16.682Z,4.60
2019-03-26T02:16:46.602Z,4.60
2019-03-26T02:19:16.582Z,4.60
2019-03-26T02:21:46.507Z,4.60
2019-03-26T02:24:16.447Z,4.60
2019-03-26T02:26:46.448Z,4.60
2019-03-26T02:29:16.434Z,4.60
2019-03-26T02:31:47.425Z,4.60
2019-03-26T02:34:17.571Z,4.60
2019-03-26T02:36:47.560Z,4.50
2019-03-26T02:39:17.643Z,4.60
2019-03-26T02:41:47.845Z,4.50
2019-03-26T02:44:17.887Z,4.60
2019-03-26T02:46:47.910Z,4.50
2019-03-26T02:49:18.038Z,4.50
2019-03-26T02:51:48.082Z,4.60
2019-03-26T02:54:18.086Z,4.60
2019-03-26T02:56:47.974Z,4.50
2019-03-26T02:59:17.909Z,4.50
2019-03-26T03:01:47.901Z,4.50
2019-03-26T03:04:17.911Z,4.50
2019-03-26T03:06:47.931Z,4.50
2019-03-26T03:09:17.933Z,4.50
2019-03-26T03:11:48.122Z,4.50
2019-03-26T03:14:18.122Z,4.40
2019-03-26T03:16:48.086Z,4.40
2019-03-26T03:19:18.251Z,4.40
2019-03-26T03:21:48.207Z,4.40
2019-03-26T03:24:18.284Z,4.40
2019-03-26T03:26:48.526Z,4.40
2019-03-26T03:29:18.459Z,4.40
2019-03-26T03:31:48.431Z,4.40
2019-03-26T03:34:18.435Z,4.40
2019-03-26T03:36:48.339Z,4.40
2019-03-26T03:39:18.341Z,4.40
2019-03-26T03:41:48.419Z,4.40
2019-03-26T03:44:18.317Z,4.40
2019-03-26T03:46:49.636Z,4.40
2019-03-26T03:49:22.759Z,4.30
2019-03-26T03:51:54.776Z,4.30
2019-03-26T03:54:25.112Z,4.30
2019-03-26T03:56:56.628Z,4.30
2019-03-26T03:59:28.481Z,4.30
2019-03-26T04:01:58.364Z,4.20
2019-03-26T04:04:28.365Z,4.30
2019-03-26T04:06:58.292Z,4.30
2019-03-26T04:09:28.242Z,4.30
2019-03-26T04:11:58.193Z,4.30
2019-03-26T04:14:27.956Z,4.30
2019-03-26T04:16:57.729Z,4.30
2019-03-26T04:19:27.563Z,4.30
2019-03-26T04:21:57.401Z,4.30
2019-03-26T04:24:27.356Z,4.30
2019-03-26T04:26:57.359Z,4.30
2019-03-26T04:29:27.193Z,4.30
2019-03-26T04:31:57.296Z,4.30
2019-03-26T04:34:27.281Z,4.30
2019-03-26T04:36:57.212Z,4.30
2019-03-26T04:39:27.141Z,4.30
2019-03-26T04:41:56.970Z,4.30
2019-03-26T04:44:26.903Z,4.30
2019-03-26T04:46:56.751Z,4.20
2019-03-26T04:49:26.710Z,4.20
2019-03-26T04:51:56.522Z,4.10
2019-03-26T04:54:26.451Z,4.20
2019-03-26T04:56:56.412Z,4.20
2019-03-26T04:59:26.220Z,4.20
2019-03-26T05:01:56.064Z,4.20
2019-03-26T05:04:26.018Z,4.10
2019-03-26T05:06:55.986Z,4.20
2019-03-26T05:09:25.883Z,4.20
2019-03-26T05:11:55.883Z,4.30
2019-03-26T05:14:25.850Z,4.30
2019-03-26T05:16:55.680Z,4.30
2019-03-26T05:19:25.599Z,4.30
2019-03-26T05:21:55.459Z,4.30
2019-03-26T05:24:25.287Z,4.30
2019-03-26T05:26:55.279Z,4.30
2019-03-26T05:29:25.223Z,4.30
2019-03-26T05:31:55.123Z,4.30
2019-03-26T05:34:25.063Z,4.30
2019-03-26T05:36:55.040Z,4.30
2019-03-26T05:39:24.973Z,4.30
2019-03-26T05:41:54.942Z,4.40
2019-03-26T05:44:24.700Z,4.40
2019-03-26T05:46:54.610Z,4.40
2019-03-26T05:49:24.411Z,4.40
2019-03-26T05:51:54.417Z,4.40
2019-03-26T05:54:24.504Z,4.50
2019-03-26T05:56:54.677Z,4.50
2019-03-26T05:59:24.715Z,4.50
2019-03-26T06:01:54.714Z,4.50
2019-03-26T06:04:24.624Z,4.50
2019-03-26T06:07:04.307Z,4.50
2019-03-26T06:09:26.387Z,4.50
2019-03-26T06:11:56.172Z,4.50
2019-03-26T06:14:26.199Z,4.50
2019-03-26T06:16:56.253Z,4.60
2019-03-26T06:19:26.207Z,4.60
2019-03-26T06:21:56.142Z,4.60
2019-03-26T06:24:26.175Z,4.70
2019-03-26T06:26:56.160Z,4.70
2019-03-26T06:29:26.165Z,4.70
2019-03-26T06:31:56.067Z,4.70
2019-03-26T06:34:25.935Z,4.80
2019-03-26T06:36:56.252Z,4.80
2019-03-26T06:39:26.287Z,4.80
2019-03-26T06:41:56.214Z,4.70
2019-03-26T06:44:28.824Z,4.70
2019-03-26T06:46:58.685Z,4.70
2019-03-26T06:49:28.582Z,4.80
2019-03-26T06:51:58.533Z,4.90
2019-03-26T06:54:28.452Z,5.00
2019-03-26T06:56:58.481Z,5.10
2019-03-26T06:59:28.421Z,5.20
2019-03-26T07:01:58.687Z,5.10
2019-03-26T07:04:28.625Z,5.10
2019-03-26T07:06:58.525Z,5.20
2019-03-26T07:09:28.491Z,5.20
2019-03-26T07:11:58.354Z,5.30
2019-03-26T07:16:18.380Z,5.40
2019-03-26T07:23:36.984Z,5.60
2019-03-26T07:26:06.921Z,6.10
2019-03-26T07:28:36.780Z,6.50
2019-03-26T07:31:06.685Z,6.70
2019-03-26T07:33:36.633Z,6.60
2019-03-26T07:36:06.639Z,6.60
2019-03-26T07:38:36.539Z,7.00
2019-03-26T07:41:06.479Z,7.40
2019-03-26T07:43:36.516Z,7.60
2019-03-26T07:46:06.452Z,7.70
2019-03-26T07:48:36.526Z,7.60
2019-03-26T07:51:06.572Z,7.50
2019-03-26T07:53:36.439Z,7.40
2019-03-26T07:56:06.343Z,7.40
2019-03-26T07:58:36.243Z,7.40
2019-03-26T08:01:06.075Z,7.70
2019-03-26T08:03:36.021Z,8.10
2019-03-26T08:06:06.029Z,8.10
2019-03-26T08:08:35.994Z,7.90
2019-03-26T08:11:05.840Z,7.80
2019-03-26T08:13:35.883Z,7.70
2019-03-26T08:16:05.955Z,7.60
2019-03-26T08:18:36.008Z,7.60
2019-03-26T08:21:05.957Z,7.50
2019-03-26T08:23:38.324Z,7.50
2019-03-26T08:26:07.450Z,7.50
2019-03-26T08:28:37.311Z,8.00
2019-03-26T08:31:07.171Z,8.60
2019-03-26T08:33:37.242Z,9.10
2019-03-26T08:36:07.206Z,9.50
2019-03-26T08:38:37.043Z,9.20
2019-03-26T08:41:06.937Z,8.90
2019-03-26T08:43:36.900Z,9.10
2019-03-26T08:46:06.968Z,9.10
2019-03-26T08:48:36.994Z,9.40
2019-03-26T08:51:07.445Z,9.60
2019-03-26T08:53:37.271Z,9.70
2019-03-26T08:56:07.148Z,9.60
2019-03-26T08:58:37.450Z,9.90
2019-03-26T09:01:07.384Z,9.50
2019-03-26T09:03:37.246Z,9.30
2019-03-26T09:06:07.142Z,9.50
2019-03-26T09:08:37.053Z,9.60
2019-03-26T09:11:07.143Z,9.60
2019-03-26T09:13:37.153Z,9.50
2019-03-26T09:16:07.123Z,9.20
2019-03-26T09:18:37.060Z,9.00
2019-03-26T09:21:07.088Z,8.90
2019-03-26T09:23:37.063Z,9.00
2019-03-26T09:26:06.969Z,8.80
2019-03-26T09:28:36.864Z,8.70
2019-03-26T09:31:06.738Z,8.60
2019-03-26T09:33:36.695Z,8.60
2019-03-26T09:36:06.682Z,8.70
2019-03-26T09:38:39.044Z,8.70
2019-03-26T09:41:08.130Z,8.50
2019-03-26T09:43:38.271Z,8.60
2019-03-26T09:46:08.209Z,8.60
2019-03-26T09:48:38.329Z,8.60
2019-03-26T09:51:10.696Z,8.40
2019-03-26T09:53:40.031Z,8.30
2019-03-26T09:56:10.104Z,8.40
2019-03-26T09:58:40.154Z,8.50
2019-03-26T10:01:10.181Z,8.60
2019-03-26T10:03:40.202Z,8.60
2019-03-26T10:06:22.603Z,8.50
2019-03-26T10:08:51.745Z,8.50
2019-03-26T10:11:13.298Z,8.60
2019-03-26T10:13:43.242Z,8.70
2019-03-26T10:16:13.252Z,8.60
2019-03-26T10:18:43.200Z,8.50
2019-03-26T10:21:13.331Z,8.40
2019-03-26T10:23:43.208Z,8.30
2019-03-26T10:26:13.171Z,8.20
2019-03-26T10:28:43.293Z,8.30
2019-03-26T10:31:13.293Z,8.40
2019-03-26T10:33:43.191Z,8.30
2019-03-26T10:36:13.037Z,8.30
2019-03-26T10:38:42.966Z,8.30
2019-03-26T10:41:12.994Z,8.30
2019-03-26T10:43:43.109Z,8.30
2019-03-26T10:46:12.945Z,8.50
2019-03-26T10:48:42.797Z,8.80
2019-03-26T10:51:12.651Z,8.90
2019-03-26T10:53:42.676Z,9.00
2019-03-26T10:56:12.710Z,9.20
2019-03-26T10:58:42.586Z,9.10
2019-03-26T11:01:12.439Z,8.90
2019-03-26T11:03:42.581Z,9.00
2019-03-26T11:06:12.590Z,9.10
2019-03-26T11:08:45.079Z,9.70
2019-03-26T11:11:14.309Z,10.00
2019-03-26T11:13:47.488Z,10.30
2019-03-26T11:16:17.756Z,10.50
2019-03-26T11:18:47.915Z,10.70
2019-03-26T11:21:18.194Z,10.90
2019-03-26T11:23:48.221Z,10.70
2019-03-26T11:26:19.990Z,10.90
2019-03-26T11:28:50.494Z,11.20
2019-03-26T11:31:20.624Z,11.50
2019-03-26T11:33:51.306Z,11.50
2019-03-26T11:36:21.288Z,11.40
2019-03-26T11:38:51.288Z,11.30
2019-03-26T11:41:22.939Z,11.40
2019-03-26T11:47:28.138Z,11.50
2019-03-26T11:49:58.135Z,11.30
2019-03-26T11:52:27.976Z,11.00
2019-03-26T11:54:57.700Z,10.90
2019-03-26T11:57:27.416Z,11.30
2019-03-26T11:59:57.242Z,11.20
2019-03-26T12:02:27.201Z,11.30
2019-03-26T12:04:57.134Z,11.30
2019-03-26T12:07:26.854Z,11.20
2019-03-26T12:09:56.704Z,11.10
2019-03-26T12:12:26.583Z,10.80
2019-03-26T12:14:56.431Z,10.80
2019-03-26T12:17:26.138Z,11.10
2019-03-26T12:19:55.965Z,11.40
2019-03-26T12:22:25.746Z,11.40
2019-03-26T12:24:55.590Z,11.30
2019-03-26T12:27:25.414Z,11.20
2019-03-26T12:29:55.265Z,11.30
2019-03-26T12:32:24.979Z,11.40
2019-03-26T12:34:54.723Z,11.60
2019-03-26T12:37:24.502Z,11.50
2019-03-26T12:39:59.827Z,11.50
2019-03-26T12:42:25.853Z,11.40
2019-03-26T12:44:55.748Z,11.40
2019-03-26T12:47:28.550Z,11.30
2019-03-26T12:49:58.430Z,11.30
2019-03-26T12:52:28.248Z,11.20
2019-03-26T12:54:58.036Z,11.10
2019-03-26T12:57:27.835Z,11.20
2019-03-26T12:59:57.637Z,11.20
2019-03-26T13:02:27.589Z,11.00
2019-03-26T13:04:57.374Z,10.90
2019-03-26T13:07:28.986Z,10.80
2019-03-26T13:10:07.843Z,10.60
2019-03-26T13:12:30.195Z,10.60
2019-03-26T13:15:00.002Z,10.40
2019-03-26T13:17:29.842Z,10.30
2019-03-26T13:19:59.715Z,10.20
2019-03-26T13:22:29.523Z,10.20
2019-03-26T13:24:59.311Z,10.00
2019-03-26T13:27:29.081Z,9.90
2019-03-26T13:29:59.201Z,9.80
2019-03-26T13:32:29.399Z,9.70
2019-03-26T13:34:59.181Z,9.60
2019-03-26T13:37:28.920Z,9.70
2019-03-26T13:39:58.626Z,9.60
2019-03-26T13:42:28.622Z,9.60
2019-03-26T13:44:58.450Z,9.50
2019-03-26T13:47:28.286Z,9.40
2019-03-26T13:49:58.086Z,9.20
2019-03-26T13:52:27.929Z,9.00
2019-03-26T13:54:57.723Z,9.00
2019-03-26T13:57:27.462Z,9.00
2019-03-26T13:59:57.228Z,9.00
2019-03-26T14:02:29.561Z,8.90
2019-03-26T14:04:59.365Z,9.00
2019-03-26T14:07:29.108Z,9.10
2019-03-26T14:10:00.452Z,9.20
2019-03-26T14:12:30.283Z,9.20
2019-03-26T14:15:00.264Z,9.30
2019-03-26T14:17:30.950Z,9.40
2019-03-26T14:20:00.762Z,9.50
2019-03-26T14:22:30.487Z,9.60
2019-03-26T14:25:01.748Z,9.60
2019-03-26T14:27:32.009Z,9.60
2019-03-26T14:30:01.887Z,9.60
2019-03-26T14:32:31.958Z,9.60
2019-03-26T14:35:01.774Z,9.60
2019-03-26T14:37:31.651Z,9.60
2019-03-26T14:40:02.105Z,9.60
2019-03-26T14:42:31.900Z,9.60
2019-03-26T14:45:01.641Z,9.50
2019-03-26T14:47:31.430Z,9.50
2019-03-26T14:50:01.234Z,9.50
2019-03-26T14:52:31.081Z,9.40
2019-03-26T14:55:00.967Z,9.30
2019-03-26T14:57:30.758Z,9.30
2019-03-26T15:00:00.471Z,9.40
2019-03-26T15:02:30.210Z,9.50
2019-03-26T15:05:00.027Z,9.50
2019-03-26T15:07:29.843Z,9.50
2019-03-26T15:10:01.912Z,9.30
2019-03-26T15:12:31.768Z,9.30
2019-03-26T15:15:01.663Z,9.30
2019-03-26T15:17:31.534Z,9.20
2019-03-26T15:20:01.431Z,9.10
2019-03-26T15:22:31.814Z,9.10
2019-03-26T15:25:01.524Z,9.00
2019-03-26T15:27:31.375Z,8.90
2019-03-26T15:30:01.250Z,8.90
2019-03-26T15:32:31.307Z,8.90
2019-03-26T15:35:01.062Z,8.90
2019-03-26T15:37:30.962Z,8.80
2019-03-26T15:40:00.899Z,8.80
2019-03-26T15:42:31.068Z,8.90
2019-03-26T15:45:00.831Z,8.80
2019-03-26T15:47:30.746Z,8.80
2019-03-26T15:52:44.635Z,8.70
2019-03-26T15:55:14.636Z,8.60
2019-03-26T16:06:29.452Z,8.50
2019-03-26T16:08:59.325Z,8.50
2019-03-26T16:11:35.618Z,8.40
2019-03-26T16:14:00.822Z,8.40
2019-03-26T16:16:30.794Z,8.40
2019-03-26T16:19:00.694Z,8.30
2019-03-26T16:21:30.751Z,8.20
2019-03-26T16:24:00.788Z,8.20
2019-03-26T16:26:30.715Z,8.10
2019-03-26T16:29:00.924Z,8.00
2019-03-26T16:31:31.042Z,8.00
2019-03-26T16:34:00.963Z,7.90
2019-03-26T16:36:30.969Z,7.90
2019-03-26T16:39:00.870Z,7.80
2019-03-26T16:41:30.750Z,7.70
2019-03-26T16:44:00.655Z,7.70
2019-03-26T16:46:30.598Z,7.60
2019-03-26T16:49:00.590Z,7.60
2019-03-26T16:51:30.559Z,7.60
2019-03-26T16:54:00.658Z,7.50
2019-03-26T16:56:30.615Z,7.50
2019-03-26T16:59:02.176Z,7.50
2019-03-26T17:01:32.113Z,7.40
2019-03-26T17:04:02.249Z,7.40
2019-03-26T17:06:32.147Z,7.40
2019-03-26T17:09:02.471Z,7.20
2019-03-26T17:11:32.475Z,7.20
2019-03-26T17:14:02.580Z,7.20
2019-03-26T17:16:32.509Z,7.10
2019-03-26T17:19:02.416Z,7.10
2019-03-26T17:21:32.485Z,7.00
2019-03-26T17:24:02.582Z,7.00
2019-03-26T17:26:32.564Z,7.00
2019-03-26T17:29:02.523Z,6.90
2019-03-26T17:31:32.853Z,6.90
2019-03-26T17:34:02.765Z,6.90
2019-03-26T17:36:32.734Z,6.90
2019-03-26T17:39:03.803Z,6.90
2019-03-26T17:41:33.752Z,6.90
2019-03-26T17:44:03.859Z,6.90
2019-03-26T17:46:33.866Z,6.90
2019-03-26T17:49:03.945Z,6.80
2019-03-26T17:51:33.972Z,6.80
2019-03-26T17:54:04.126Z,6.80
2019-03-26T17:56:34.149Z,6.80
2019-03-26T17:59:04.763Z,6.80
2019-03-26T18:01:35.026Z,6.70
2019-03-26T18:04:04.878Z,6.70
2019-03-26T18:06:34.796Z,6.70
2019-03-26T18:09:06.717Z,6.70
2019-03-26T18:11:36.897Z,6.70
2019-03-26T18:14:06.851Z,6.60
2019-03-26T18:16:36.920Z,6.60
2019-03-26T18:19:07.313Z,6.50
2019-03-26T18:21:50.538Z,6.40
2019-03-26T18:24:13.800Z,6.40
2019-03-26T18:26:43.835Z,6.30
2019-03-26T18:29:13.812Z,6.30
2019-03-26T18:31:43.801Z,6.20
2019-03-26T18:34:16.692Z,6.20
2019-03-26T18:36:47.008Z,6.20
2019-03-26T18:39:17.030Z,6.20
2019-03-26T18:41:46.980Z,6.10
2019-03-26T18:44:17.079Z,6.10
2019-03-26T18:46:47.052Z,6.10
2019-03-26T18:49:16.991Z,6.10
2019-03-26T18:51:46.907Z,6.10
2019-03-26T18:54:16.926Z,6.10
2019-03-26T18:56:47.910Z,6.20
2019-03-26T18:59:17.895Z,6.20
2019-03-26T19:01:47.896Z,6.20
2019-03-26T19:04:17.918Z,6.20
2019-03-26T19:06:47.960Z,6.20
2019-03-26T19:09:18.147Z,6.20
2019-03-26T19:11:48.236Z,6.20
2019-03-26T19:14:18.383Z,6.20
2019-03-26T19:16:48.410Z,6.20
2019-03-26T19:19:20.048Z,6.10
2019-03-26T19:21:50.732Z,6.10
2019-03-26T19:24:21.750Z,6.10
2019-03-26T19:26:51.882Z,6.10
2019-03-26T19:29:22.104Z,6.00
2019-03-26T19:31:52.034Z,6.00
2019-03-26T19:34:22.206Z,5.90
2019-03-26T19:36:52.268Z,5.90
2019-03-26T19:39:22.272Z,5.90
2019-03-26T19:41:52.207Z,5.90
2019-03-26T19:44:22.299Z,5.90
2019-03-26T19:46:52.331Z,5.90
2019-03-26T19:49:22.222Z,5.80
2019-03-26T19:51:52.180Z,5.80
2019-03-26T19:54:22.741Z,5.60
2019-03-26T19:56:52.749Z,5.60
2019-03-26T19:59:22.874Z,5.60
2019-03-26T20:01:53.317Z,5.60
2019-03-26T20:04:24.597Z,5.50
2019-03-26T20:06:54.664Z,5.40
2019-03-26T20:09:24.650Z,5.50
2019-03-26T20:11:54.700Z,5.50
2019-03-26T20:14:24.711Z,5.50
2019-03-26T20:16:54.760Z,5.50
2019-03-26T20:19:24.913Z,5.40
2019-03-26T20:21:55.007Z,5.40
2019-03-26T20:24:25.213Z,5.40
2019-03-26T20:26:55.406Z,5.40
2019-03-26T20:29:25.493Z,5.30
2019-03-26T20:31:55.329Z,5.30
2019-03-26T20:34:26.461Z,5.30
2019-03-26T20:36:56.333Z,5.30
2019-03-26T20:39:26.244Z,5.30
2019-03-26T20:41:56.157Z,5.30
2019-03-26T20:44:26.225Z,5.20
2019-03-26T20:46:56.243Z,5.30
2019-03-26T20:49:27.683Z,5.30
2019-03-26T20:51:57.559Z,5.20
2019-03-26T20:54:27.509Z,5.30
2019-03-26T20:56:57.615Z,5.20
2019-03-26T20:59:28.090Z,5.20
2019-03-26T21:01:58.001Z,5.20
2019-03-26T21:04:27.918Z,5.20
2019-03-26T21:06:58.132Z,5.20
2019-03-26T21:09:28.063Z,5.20
2019-03-26T21:11:58.248Z,5.20
2019-03-26T21:14:28.230Z,5.20
2019-03-26T21:16:58.203Z,5.20
2019-03-26T21:19:28.102Z,5.20
2019-03-26T21:21:58.033Z,5.20
2019-03-26T21:24:27.906Z,5.30
2019-03-26T21:26:57.854Z,5.20
2019-03-26T21:29:27.836Z,5.20
2019-03-26T21:31:57.775Z,5.20
2019-03-26T21:34:30.733Z,5.20
2019-03-26T21:37:00.030Z,5.20
2019-03-26T21:39:30.190Z,5.20
2019-03-26T21:42:00.225Z,5.20
2019-03-26T21:44:30.312Z,5.10
2019-03-26T21:47:00.331Z,5.20
2019-03-26T21:49:30.363Z,5.10
2019-03-26T21:52:00.685Z,5.10
2019-03-26T21:54:30.748Z,5.10
2019-03-26T21:57:00.752Z,5.10
2019-03-26T21:59:30.732Z,5.10
2019-03-26T22:02:00.658Z,5.00
2019-03-26T22:04:30.564Z,5.00
2019-03-26T22:07:00.463Z,5.00
2019-03-26T22:09:30.642Z,5.00
2019-03-26T22:12:00.666Z,5.00
2019-03-26T22:14:30.714Z,5.00
2019-03-26T22:17:00.815Z,5.00
2019-03-26T22:19:30.731Z,5.00
2019-03-26T22:22:00.677Z,4.90
2019-03-26T22:24:30.644Z,4.90
2019-03-26T22:27:00.975Z,4.80
2019-03-26T22:29:30.938Z,4.90
2019-03-26T22:32:00.935Z,4.90
2019-03-26T22:34:30.835Z,4.80
2019-03-26T22:37:00.797Z,4.80
2019-03-26T22:39:30.831Z,4.80
2019-03-26T22:42:00.838Z,4.80
2019-03-26T22:44:31.916Z,4.80
2019-03-26T22:47:02.023Z,4.80
2019-03-26T22:49:32.184Z,4.80
2019-03-26T22:52:02.119Z,4.80
2019-03-26T22:54:32.044Z,4.80
2019-03-26T22:57:02.055Z,4.80
2019-03-26T22:59:32.080Z,4.70
2019-03-26T23:02:02.280Z,4.70
2019-03-26T23:04:32.421Z,4.70
2019-03-26T23:07:02.376Z,4.70
2019-03-26T23:09:32.375Z,4.70
2019-03-26T23:12:02.507Z,4.60
2019-03-26T23:14:44.364Z,4.60
2019-03-26T23:17:04.292Z,4.60
2019-03-26T23:19:34.464Z,4.60
2019-03-26T23:22:04.354Z,4.50
2019-03-26T23:24:34.654Z,4.50
2019-03-26T23:27:04.668Z,4.50
2019-03-26T23:29:34.749Z,4.40
2019-03-26T23:32:04.729Z,4.40
2019-03-26T23:34:34.671Z,4.40
2019-03-26T23:37:04.576Z,4.40
2019-03-26T23:39:34.439Z,4.40
2019-03-26T23:42:04.428Z,4.40
2019-03-26T23:44:34.369Z,4.30
2019-03-26T23:47:04.691Z,4.30
2019-03-26T23:49:34.617Z,4.30
2019-03-26T23:52:04.840Z,4.20
2019-03-26T23:54:34.741Z,4.20
2019-03-26T23:57:04.781Z,4.20
2019-03-26T23:59:34.614Z,4.10
